createdAt,value
2018-09-12T00:00:08.279Z,0.00
2018-09-12T00:01:08.300Z,0.00
2018-09-12T00:02:08.322Z,0.00
2018-09-12T00:03:08.346Z,0.00
2018-09-12T00:04:08.371Z,0.00
2018-09-12T00:05:08.405Z,0.00
2018-09-12T00:06:08.423Z,0.00
2018-09-12T00:07:08.445Z,0.00
2018-09-12T00:08:08.467Z,0.00
2018-09-12T00:09:08.494Z,0.00
2018-09-12T00:10:08.519Z,0.00
2018-09-12T00:11:08.543Z,0.00
2018-09-12T00:12:08.567Z,0.00
2018-09-12T00:13:08.594Z,0.00
2018-09-12T00:14:08.614Z,0.00
2018-09-12T00:15:08.638Z,0.00
2018-09-12T00:16:08.662Z,0.00
2018-09-12T00:17:08.689Z,0.00
2018-09-12T00:18:08.713Z,0.00
2018-09-12T00:19:08.736Z,0.00
2018-09-12T00:20:08.760Z,0.00
2018-09-12T00:21:08.852Z,0.00
2018-09-12T00:22:08.810Z,0.00
2018-09-12T00:23:08.835Z,0.00
2018-09-12T00:24:08.860Z,0.00
2018-09-12T00:25:08.885Z,0.00
2018-09-12T00:26:08.907Z,0.00
2018-09-12T00:27:08.932Z,0.00
2018-09-12T00:28:08.955Z,0.00
2018-09-12T00:29:08.980Z,0.00
2018-09-12T00:30:09.006Z,0.00
2018-09-12T00:31:09.029Z,0.00
2018-09-12T00:32:09.052Z,0.00
2018-09-12T00:33:09.077Z,0.00
2018-09-12T00:34:09.102Z,0.00
2018-09-12T00:35:09.126Z,0.00
2018-09-12T00:36:09.150Z,0.00
2018-09-12T00:37:09.174Z,0.00
2018-09-12T00:38:09.201Z,0.00
2018-09-12T00:39:09.226Z,0.00
2018-09-12T00:40:09.246Z,0.00
2018-09-12T00:41:09.273Z,0.00
2018-09-12T00:42:09.295Z,0.00
2018-09-12T00:43:09.318Z,0.00
2018-09-12T00:44:09.345Z,0.00
2018-09-12T00:45:09.368Z,0.00
2018-09-12T00:46:09.393Z,0.00
2018-09-12T00:47:09.416Z,0.00
2018-09-12T00:48:09.441Z,0.00
2018-09-12T00:49:09.469Z,0.00
2018-09-12T00:50:09.490Z,0.00
2018-09-12T00:51:09.514Z,0.00
2018-09-12T00:52:09.539Z,0.00
2018-09-12T00:53:09.563Z,0.00
2018-09-12T00:54:09.587Z,0.00
2018-09-12T00:55:09.609Z,0.00
2018-09-12T00:56:09.635Z,0.00
2018-09-12T00:57:09.659Z,0.00
2018-09-12T00:58:09.684Z,0.00
2018-09-12T00:59:09.711Z,0.00
2018-09-12T01:00:09.731Z,0.00
2018-09-12T01:01:09.757Z,0.00
2018-09-12T01:02:09.781Z,0.00
2018-09-12T01:03:09.804Z,0.00
2018-09-12T01:04:09.829Z,0.00
2018-09-12T01:05:09.860Z,0.00
2018-09-12T01:06:09.877Z,0.00
2018-09-12T01:07:09.901Z,0.00
2018-09-12T01:08:09.925Z,0.00
2018-09-12T01:09:09.953Z,0.00
2018-09-12T01:10:09.974Z,0.00
2018-09-12T01:11:09.997Z,0.00
2018-09-12T01:12:10.031Z,0.00
2018-09-12T01:13:10.045Z,0.00
2018-09-12T01:14:10.073Z,0.00
2018-09-12T01:15:10.095Z,0.00
2018-09-12T01:16:10.120Z,0.00
2018-09-12T01:17:10.147Z,0.00
2018-09-12T01:18:10.170Z,0.00
2018-09-12T01:19:10.212Z,0.00
2018-09-12T01:20:10.215Z,0.00
2018-09-12T01:21:10.241Z,0.00
2018-09-12T01:22:10.264Z,0.00
2018-09-12T01:23:10.288Z,0.00
2018-09-12T01:24:10.314Z,0.00
2018-09-12T01:25:10.337Z,0.00
2018-09-12T01:26:10.361Z,0.00
2018-09-12T01:27:10.387Z,0.00
2018-09-12T01:28:10.411Z,0.00
2018-09-12T01:29:10.434Z,0.00
2018-09-12T01:30:10.457Z,0.00
2018-09-12T01:31:10.481Z,0.00
2018-09-12T01:32:10.507Z,0.00
2018-09-12T01:33:10.535Z,0.00
2018-09-12T01:34:10.554Z,0.00
2018-09-12T01:35:10.578Z,0.00
2018-09-12T01:36:10.600Z,0.00
2018-09-12T01:37:10.627Z,0.00
2018-09-12T01:38:10.655Z,0.00
2018-09-12T01:39:10.675Z,0.00
2018-09-12T01:40:10.704Z,0.00
2018-09-12T01:41:10.726Z,0.00
2018-09-12T01:42:10.747Z,0.00
2018-09-12T01:43:10.773Z,0.00
2018-09-12T01:44:10.802Z,0.00
2018-09-12T01:45:10.821Z,0.00
2018-09-12T01:46:10.846Z,0.00
2018-09-12T01:47:10.869Z,0.00
2018-09-12T01:48:10.890Z,0.00
2018-09-12T01:49:10.916Z,0.00
2018-09-12T01:50:10.940Z,0.00
2018-09-12T01:51:10.965Z,0.00
2018-09-12T01:52:11.000Z,0.00
2018-09-12T01:53:11.014Z,0.00
2018-09-12T01:54:11.037Z,0.00
2018-09-12T01:55:11.069Z,0.00
2018-09-12T01:56:11.090Z,0.00
2018-09-12T01:57:11.111Z,0.00
2018-09-12T01:58:11.137Z,0.00
2018-09-12T01:59:11.161Z,0.00
2018-09-12T02:00:11.182Z,0.00
2018-09-12T02:01:11.211Z,0.00
2018-09-12T02:02:11.230Z,0.00
2018-09-12T02:03:11.255Z,0.00
2018-09-12T02:04:11.277Z,0.00
2018-09-12T02:05:11.304Z,0.00
2018-09-12T02:06:11.327Z,0.00
2018-09-12T02:07:11.350Z,0.00
2018-09-12T02:08:11.374Z,0.00
2018-09-12T02:09:11.399Z,0.00
2018-09-12T02:10:11.422Z,0.00
2018-09-12T02:11:11.446Z,0.00
2018-09-12T02:12:11.473Z,0.00
2018-09-12T02:13:11.498Z,0.00
2018-09-12T02:14:11.519Z,0.00
2018-09-12T02:15:11.543Z,0.00
2018-09-12T02:16:11.568Z,0.00
2018-09-12T02:17:11.593Z,0.00
2018-09-12T02:18:11.619Z,0.00
2018-09-12T02:19:11.641Z,0.00
2018-09-12T02:20:11.665Z,0.00
2018-09-12T02:21:11.723Z,0.00
2018-09-12T02:22:11.717Z,0.00
2018-09-12T02:23:11.735Z,0.00
2018-09-12T02:24:11.759Z,0.00
2018-09-12T02:25:11.788Z,0.00
2018-09-12T02:26:11.808Z,0.00
2018-09-12T02:27:11.831Z,0.00
2018-09-12T02:28:11.857Z,0.00
2018-09-12T02:29:11.880Z,0.00
2018-09-12T02:30:11.906Z,0.00
2018-09-12T02:31:11.927Z,0.00
2018-09-12T02:32:11.953Z,0.00
2018-09-12T02:33:11.975Z,0.00
2018-09-12T02:34:12.004Z,0.00
2018-09-12T02:35:12.023Z,0.00
2018-09-12T02:36:12.091Z,0.00
2018-09-12T02:37:12.074Z,0.00
2018-09-12T02:38:12.106Z,0.00
2018-09-12T02:39:12.120Z,0.00
2018-09-12T02:40:12.142Z,0.00
2018-09-12T02:41:12.168Z,0.00
2018-09-12T02:42:12.191Z,0.00
2018-09-12T02:43:12.218Z,0.00
2018-09-12T02:44:12.239Z,0.00
2018-09-12T02:45:12.263Z,0.00
2018-09-12T02:46:12.288Z,0.00
2018-09-12T02:47:12.310Z,0.00
2018-09-12T02:48:12.349Z,0.00
2018-09-12T02:49:12.360Z,0.00
2018-09-12T02:50:12.386Z,0.00
2018-09-12T02:51:12.410Z,0.00
2018-09-12T02:52:12.431Z,0.00
2018-09-12T02:53:12.456Z,0.00
2018-09-12T02:54:12.481Z,0.00
2018-09-12T02:55:12.507Z,0.00
2018-09-12T02:56:12.529Z,0.00
2018-09-12T02:57:12.552Z,0.00
2018-09-12T02:58:12.577Z,0.00
2018-09-12T02:59:12.600Z,0.00
2018-09-12T03:00:12.624Z,0.00
2018-09-12T03:01:12.650Z,0.00
2018-09-12T03:02:12.672Z,0.00
2018-09-12T03:03:12.694Z,0.00
2018-09-12T03:04:12.720Z,0.00
2018-09-12T03:05:12.746Z,0.00
2018-09-12T03:06:12.767Z,0.00
2018-09-12T03:07:12.792Z,0.00
2018-09-12T03:08:12.817Z,0.00
2018-09-12T03:09:12.839Z,0.00
2018-09-12T03:10:12.865Z,0.00
2018-09-12T03:11:12.887Z,0.00
2018-09-12T03:12:12.910Z,0.00
2018-09-12T03:13:12.937Z,0.00
2018-09-12T03:14:12.959Z,0.00
2018-09-12T03:15:12.982Z,0.00
2018-09-12T03:16:13.007Z,0.00
2018-09-12T03:17:13.032Z,0.00
2018-09-12T03:18:13.057Z,0.00
2018-09-12T03:19:13.082Z,0.00
2018-09-12T03:20:13.103Z,0.00
2018-09-12T03:21:13.235Z,0.00
2018-09-12T03:22:13.150Z,0.00
2018-09-12T03:23:13.172Z,0.00
2018-09-12T03:24:13.199Z,0.00
2018-09-12T03:25:13.225Z,0.00
2018-09-12T03:26:13.246Z,0.00
2018-09-12T03:27:13.275Z,0.00
2018-09-12T03:28:13.288Z,0.00
2018-09-12T03:29:13.320Z,0.00
2018-09-12T03:30:13.341Z,0.00
2018-09-12T03:31:13.380Z,0.00
2018-09-12T03:32:13.388Z,0.00
2018-09-12T03:33:13.411Z,0.00
2018-09-12T03:34:13.437Z,0.00
2018-09-12T03:35:13.471Z,0.00
2018-09-12T03:36:13.483Z,0.00
2018-09-12T03:37:13.507Z,0.00
2018-09-12T03:38:13.531Z,0.00
2018-09-12T03:39:13.555Z,0.00
2018-09-12T03:40:13.580Z,0.00
2018-09-12T03:41:13.605Z,0.00
2018-09-12T03:42:13.630Z,0.00
2018-09-12T03:43:13.649Z,0.00
2018-09-12T03:44:13.677Z,0.00
2018-09-12T03:45:13.700Z,0.00
2018-09-12T03:46:13.720Z,0.00
2018-09-12T03:47:13.745Z,0.00
2018-09-12T03:48:13.773Z,0.00
2018-09-12T03:49:13.795Z,0.00
2018-09-12T03:50:13.817Z,0.00
2018-09-12T03:51:13.841Z,0.00
2018-09-12T03:52:13.871Z,0.00
2018-09-12T03:53:13.887Z,0.00
2018-09-12T03:54:13.913Z,0.00
2018-09-12T03:55:13.934Z,0.00
2018-09-12T03:56:13.961Z,0.00
2018-09-12T03:57:13.984Z,0.00
2018-09-12T03:58:14.009Z,0.00
2018-09-12T03:59:14.030Z,0.00
2018-09-12T04:00:14.054Z,0.00
2018-09-12T04:01:14.080Z,0.00
2018-09-12T04:02:14.101Z,0.00
2018-09-12T04:03:14.125Z,0.00
2018-09-12T04:04:14.149Z,0.00
2018-09-12T04:05:14.172Z,0.00
2018-09-12T04:06:14.198Z,0.00
2018-09-12T04:07:14.222Z,0.00
2018-09-12T04:08:14.247Z,0.00
2018-09-12T04:09:14.269Z,0.00
2018-09-12T04:10:14.292Z,0.00
2018-09-12T04:11:14.314Z,0.00
2018-09-12T04:12:14.337Z,0.00
2018-09-12T04:14:49.463Z,0.00
2018-09-12T04:15:46.938Z,0.00
2018-09-12T04:17:40.922Z,0.00
2018-09-12T04:18:40.939Z,0.00
2018-09-12T04:20:46.216Z,0.00
2018-09-12T04:21:45.929Z,0.00
2018-09-12T04:22:45.950Z,0.00
2018-09-12T04:23:45.983Z,0.00
2018-09-12T04:24:46.008Z,0.00
2018-09-12T04:25:46.032Z,0.00
2018-09-12T04:26:46.056Z,0.00
2018-09-12T04:27:46.079Z,0.00
2018-09-12T04:28:46.102Z,0.00
2018-09-12T04:29:46.125Z,0.00
2018-09-12T04:30:46.149Z,0.00
2018-09-12T04:31:46.165Z,0.00
2018-09-12T04:32:46.186Z,0.00
2018-09-12T04:33:46.210Z,0.00
2018-09-12T04:34:46.243Z,0.00
2018-09-12T04:35:46.268Z,0.00
2018-09-12T04:36:46.292Z,0.00
2018-09-12T04:37:46.313Z,0.00
2018-09-12T04:38:46.338Z,0.00
2018-09-12T04:39:46.374Z,0.00
2018-09-12T04:40:46.387Z,0.00
2018-09-12T04:41:46.410Z,0.00
2018-09-12T04:42:46.509Z,0.00
2018-09-12T04:43:46.445Z,0.00
2018-09-12T04:46:19.168Z,4.00
2018-09-12T04:47:18.609Z,4.00
2018-09-12T04:49:11.928Z,4.00
2018-09-12T04:50:11.945Z,0.00
2018-09-12T04:52:05.941Z,4.00
2018-09-12T04:53:05.949Z,4.00
2018-09-12T04:54:59.930Z,8.00
2018-09-12T04:55:59.945Z,8.00
2018-09-12T04:57:53.944Z,4.00
2018-09-12T04:58:53.981Z,4.00
2018-09-12T05:00:47.539Z,8.00
2018-09-12T05:01:47.552Z,8.00
2018-09-12T05:03:41.254Z,16.00
2018-09-12T05:04:40.961Z,16.00
2018-09-12T05:05:40.986Z,16.00
2018-09-12T05:06:41.008Z,12.00
2018-09-12T05:07:41.031Z,12.00
2018-09-12T05:08:41.054Z,16.00
2018-09-12T05:09:41.081Z,8.00
2018-09-12T05:10:41.102Z,12.00
2018-09-12T05:11:41.126Z,16.00
2018-09-12T05:12:41.153Z,20.00
2018-09-12T05:13:41.172Z,20.00
2018-09-12T05:14:41.201Z,24.00
2018-09-12T05:15:41.219Z,28.00
2018-09-12T05:16:41.316Z,28.00
2018-09-12T05:17:41.268Z,24.00
2018-09-12T05:18:41.289Z,32.00
2018-09-12T05:19:41.315Z,44.00
2018-09-12T05:20:41.340Z,44.00
2018-09-12T05:21:41.360Z,36.00
2018-09-12T05:22:41.383Z,32.00
2018-09-12T05:23:41.406Z,36.00
2018-09-12T05:24:41.429Z,40.00
2018-09-12T05:25:41.460Z,56.00
2018-09-12T05:26:41.480Z,72.00
2018-09-12T05:27:41.504Z,76.00
2018-09-12T05:28:41.525Z,72.00
2018-09-12T05:29:41.552Z,60.00
2018-09-12T05:30:41.572Z,48.00
2018-09-12T05:31:41.595Z,44.00
2018-09-12T05:32:41.619Z,52.00
2018-09-12T05:33:41.650Z,80.00
2018-09-12T05:34:41.665Z,96.00
2018-09-12T05:35:41.688Z,104.00
2018-09-12T05:36:41.716Z,120.00
2018-09-12T05:37:41.735Z,140.00
2018-09-12T05:38:41.757Z,192.00
2018-09-12T05:39:41.784Z,200.00
2018-09-12T05:40:41.808Z,148.00
2018-09-12T05:41:41.833Z,124.00
2018-09-12T05:42:41.854Z,116.00
2018-09-12T05:43:41.876Z,116.00
2018-09-12T05:44:41.898Z,116.00
2018-09-12T05:45:41.925Z,108.00
2018-09-12T05:46:41.948Z,116.00
2018-09-12T05:47:41.972Z,132.00
2018-09-12T05:48:41.994Z,96.00
2018-09-12T05:49:42.018Z,80.00
2018-09-12T05:50:42.042Z,92.00
2018-09-12T05:51:42.067Z,100.00
2018-09-12T05:52:42.090Z,108.00
2018-09-12T05:53:42.124Z,112.00
2018-09-12T05:54:42.134Z,140.00
2018-09-12T05:55:42.158Z,144.00
2018-09-12T05:56:42.181Z,96.00
2018-09-12T05:57:42.209Z,92.00
2018-09-12T05:58:42.228Z,128.00
2018-09-12T05:59:42.252Z,120.00
2018-09-12T06:00:42.280Z,80.00
2018-09-12T06:01:42.305Z,76.00
2018-09-12T06:02:42.324Z,108.00
2018-09-12T06:03:42.347Z,96.00
2018-09-12T06:04:42.369Z,72.00
2018-09-12T06:05:42.391Z,60.00
2018-09-12T06:06:42.481Z,68.00
2018-09-12T06:07:42.437Z,100.00
2018-09-12T06:08:42.462Z,96.00
2018-09-12T06:09:42.487Z,72.00
2018-09-12T06:10:42.509Z,88.00
2018-09-12T06:11:42.533Z,128.00
2018-09-12T06:12:42.562Z,128.00
2018-09-12T06:13:42.636Z,112.00
2018-09-12T06:14:42.603Z,124.00
2018-09-12T06:15:42.627Z,184.00
2018-09-12T06:16:42.648Z,212.00
2018-09-12T06:17:42.672Z,188.00
2018-09-12T06:18:42.697Z,152.00
2018-09-12T06:19:42.727Z,180.00
2018-09-12T06:20:42.741Z,196.00
2018-09-12T06:21:42.771Z,160.00
2018-09-12T06:22:42.790Z,148.00
2018-09-12T06:23:42.815Z,152.00
2018-09-12T06:24:42.839Z,160.00
2018-09-12T06:25:42.860Z,152.00
2018-09-12T06:26:42.885Z,136.00
2018-09-12T06:27:42.905Z,580.00
2018-09-12T06:28:42.929Z,664.00
2018-09-12T06:29:42.955Z,700.00
2018-09-12T06:30:42.984Z,720.00
2018-09-12T06:31:43.000Z,760.00
2018-09-12T06:32:43.020Z,740.00
2018-09-12T06:33:43.046Z,748.00
2018-09-12T06:34:43.070Z,768.00
2018-09-12T06:35:43.093Z,772.00
2018-09-12T06:36:43.114Z,780.00
2018-09-12T06:37:43.219Z,780.00
2018-09-12T06:38:43.236Z,764.00
2018-09-12T06:39:43.190Z,748.00
2018-09-12T06:40:43.211Z,760.00
2018-09-12T06:41:43.235Z,768.00
2018-09-12T06:42:43.262Z,784.00
2018-09-12T06:43:43.282Z,796.00
2018-09-12T06:44:43.333Z,780.00
2018-09-12T06:45:43.329Z,800.00
2018-09-12T06:46:43.351Z,804.00
2018-09-12T06:47:43.394Z,800.00
2018-09-12T06:48:43.397Z,812.00
2018-09-12T06:49:43.422Z,836.00
2018-09-12T06:50:43.447Z,856.00
2018-09-12T06:51:43.469Z,868.00
2018-09-12T06:52:43.490Z,880.00
2018-09-12T06:53:43.522Z,888.00
2018-09-12T06:54:43.553Z,892.00
2018-09-12T06:55:43.561Z,920.00
2018-09-12T06:56:43.585Z,920.00
2018-09-12T06:57:43.611Z,952.00
2018-09-12T06:58:43.634Z,964.00
2018-09-12T06:59:43.661Z,960.00
2018-09-12T07:00:43.714Z,992.00
2018-09-12T07:01:43.705Z,1044.00
2018-09-12T07:02:43.727Z,1068.00
2018-09-12T07:03:43.750Z,1044.00
2018-09-12T07:04:43.775Z,1012.00
2018-09-12T07:05:43.798Z,980.00
2018-09-12T07:06:43.821Z,980.00
2018-09-12T07:07:43.846Z,1004.00
2018-09-12T07:08:43.861Z,992.00
2018-09-12T07:09:43.892Z,988.00
2018-09-12T07:10:43.920Z,1020.00
2018-09-12T07:11:43.940Z,1060.00
2018-09-12T07:12:43.964Z,1068.00
2018-09-12T07:13:43.986Z,1052.00
2018-09-12T07:14:44.011Z,1056.00
2018-09-12T07:15:44.033Z,1092.00
2018-09-12T07:16:44.074Z,1104.00
2018-09-12T07:17:44.082Z,1124.00
2018-09-12T07:18:44.113Z,1176.00
2018-09-12T07:19:44.130Z,1188.00
2018-09-12T07:20:44.157Z,1160.00
2018-09-12T07:21:44.178Z,1156.00
2018-09-12T07:22:44.204Z,1216.00
2018-09-12T07:23:44.233Z,1328.00
2018-09-12T07:24:44.283Z,1368.00
2018-09-12T07:25:44.278Z,1496.00
2018-09-12T07:26:44.301Z,1752.00
2018-09-12T07:27:44.405Z,1976.00
2018-09-12T07:28:44.346Z,1948.00
2018-09-12T07:29:44.375Z,1808.00
2018-09-12T07:30:44.391Z,1812.00
2018-09-12T07:31:44.413Z,1708.00
2018-09-12T07:32:44.438Z,1416.00
2018-09-12T07:33:44.466Z,1232.00
2018-09-12T07:34:44.489Z,1224.00
2018-09-12T07:35:44.514Z,1396.00
2018-09-12T07:36:44.537Z,1472.00
2018-09-12T07:37:44.562Z,1420.00
2018-09-12T07:38:44.585Z,1456.00
2018-09-12T07:39:44.608Z,1564.00
2018-09-12T07:40:44.634Z,1640.00
2018-09-12T07:41:44.748Z,1428.00
2018-09-12T07:42:44.682Z,1260.00
2018-09-12T07:43:44.788Z,1228.00
2018-09-12T07:44:44.730Z,1148.00
2018-09-12T07:45:44.762Z,1096.00
2018-09-12T07:46:44.806Z,1124.00
2018-09-12T07:47:44.801Z,1200.00
2018-09-12T07:48:44.826Z,1176.00
2018-09-12T07:49:44.850Z,1148.00
2018-09-12T07:50:44.877Z,1236.00
2018-09-12T07:51:44.895Z,1228.00
2018-09-12T07:52:44.924Z,1156.00
2018-09-12T07:53:44.946Z,1232.00
2018-09-12T07:54:44.972Z,1296.00
2018-09-12T07:55:44.997Z,1228.00
2018-09-12T07:56:45.028Z,1164.00
2018-09-12T07:57:45.043Z,1156.00
2018-09-12T07:58:45.069Z,1132.00
2018-09-12T07:59:45.093Z,1096.00
2018-09-12T08:00:45.121Z,1104.00
2018-09-12T08:01:45.143Z,1068.00
2018-09-12T08:02:45.168Z,1024.00
2018-09-12T08:03:45.188Z,1052.00
2018-09-12T08:04:45.215Z,1076.00
2018-09-12T08:05:45.242Z,1076.00
2018-09-12T08:06:45.261Z,1092.00
2018-09-12T08:07:45.286Z,1076.00
2018-09-12T08:08:45.310Z,1084.00
2018-09-12T08:09:45.345Z,1120.00
2018-09-12T08:10:45.354Z,1172.00
2018-09-12T08:11:45.382Z,1168.00
2018-09-12T08:12:45.409Z,1108.00
2018-09-12T08:13:45.433Z,1104.00
2018-09-12T08:14:45.459Z,1212.00
2018-09-12T08:15:45.481Z,1408.00
2018-09-12T08:16:45.505Z,1612.00
2018-09-12T08:17:45.533Z,1620.00
2018-09-12T08:18:45.572Z,1484.00
2018-09-12T08:19:45.576Z,1440.00
2018-09-12T08:20:45.602Z,1504.00
2018-09-12T08:21:45.631Z,1616.00
2018-09-12T08:22:45.656Z,1536.00
2018-09-12T08:23:45.681Z,1344.00
2018-09-12T08:24:45.702Z,1292.00
2018-09-12T08:25:45.721Z,1376.00
2018-09-12T08:26:45.792Z,1436.00
2018-09-12T08:27:45.771Z,1540.00
2018-09-12T08:28:45.800Z,1580.00
2018-09-12T08:29:45.821Z,1604.00
2018-09-12T08:30:45.850Z,1672.00
2018-09-12T08:31:45.878Z,1904.00
2018-09-12T08:32:45.895Z,2208.00
2018-09-12T08:33:45.937Z,2344.00
2018-09-12T08:34:45.945Z,2160.00
2018-09-12T08:35:45.972Z,2168.00
2018-09-12T08:36:45.993Z,2112.00
2018-09-12T08:37:46.018Z,2048.00
2018-09-12T08:38:46.051Z,2072.00
2018-09-12T08:39:46.069Z,2000.00
2018-09-12T08:40:46.094Z,1968.00
2018-09-12T08:41:46.116Z,1876.00
2018-09-12T08:42:46.147Z,1784.00
2018-09-12T08:43:46.196Z,1896.00
2018-09-12T08:44:46.189Z,1848.00
2018-09-12T08:45:46.220Z,1728.00
2018-09-12T08:46:46.241Z,1724.00
2018-09-12T08:47:46.316Z,1696.00
2018-09-12T08:48:46.284Z,1624.00
2018-09-12T08:49:46.313Z,1600.00
2018-09-12T08:50:46.337Z,1548.00
2018-09-12T08:51:46.370Z,1528.00
2018-09-12T08:52:46.420Z,1596.00
2018-09-12T08:53:46.413Z,1580.00
2018-09-12T08:54:46.442Z,1420.00
2018-09-12T08:55:46.464Z,1296.00
2018-09-12T08:56:46.512Z,1228.00
2018-09-12T08:57:46.511Z,1216.00
2018-09-12T08:58:46.536Z,1232.00
2018-09-12T08:59:46.561Z,1256.00
2018-09-12T09:00:46.607Z,1304.00
2018-09-12T09:01:46.614Z,1324.00
2018-09-12T09:02:46.637Z,1440.00
2018-09-12T09:03:46.715Z,1472.00
2018-09-12T09:04:46.688Z,1552.00
2018-09-12T09:05:46.712Z,1664.00
2018-09-12T09:06:46.732Z,1840.00
2018-09-12T09:07:46.759Z,1888.00
2018-09-12T09:08:46.784Z,1920.00
2018-09-12T09:09:46.807Z,1816.00
2018-09-12T09:10:46.835Z,1704.00
2018-09-12T09:11:46.859Z,1592.00
2018-09-12T09:12:46.884Z,1500.00
2018-09-12T09:13:46.910Z,1432.00
2018-09-12T09:14:46.933Z,1416.00
2018-09-12T09:15:46.956Z,1512.00
2018-09-12T09:16:46.980Z,1676.00
2018-09-12T09:17:47.014Z,1604.00
2018-09-12T09:18:47.033Z,1552.00
2018-09-12T09:19:47.071Z,1692.00
2018-09-12T09:20:47.093Z,1784.00
2018-09-12T09:21:47.095Z,1864.00
2018-09-12T09:22:47.129Z,1968.00
2018-09-12T09:23:47.229Z,2048.00
2018-09-12T09:24:47.181Z,2044.00
2018-09-12T09:25:47.219Z,2088.00
2018-09-12T09:26:47.229Z,2016.00
2018-09-12T09:27:47.251Z,1888.00
2018-09-12T09:28:47.277Z,1604.00
2018-09-12T09:29:47.299Z,1428.00
2018-09-12T09:30:47.334Z,1380.00
2018-09-12T09:31:47.357Z,1492.00
2018-09-12T09:32:47.453Z,1644.00
2018-09-12T09:33:47.407Z,1596.00
2018-09-12T09:34:47.506Z,1716.00
2018-09-12T09:35:47.541Z,1816.00
2018-09-12T09:36:47.479Z,1896.00
2018-09-12T09:37:47.522Z,1868.00
2018-09-12T09:38:47.527Z,1572.00
2018-09-12T09:39:47.554Z,1600.00
2018-09-12T09:40:47.577Z,1656.00
2018-09-12T09:41:47.608Z,1624.00
2018-09-12T09:42:47.687Z,1732.00
2018-09-12T09:43:47.651Z,1804.00
2018-09-12T09:44:47.676Z,1936.00
2018-09-12T09:45:47.706Z,1924.00
2018-09-12T09:46:47.723Z,1952.00
2018-09-12T09:47:47.819Z,1948.00
2018-09-12T09:48:47.778Z,1928.00
2018-09-12T09:49:47.802Z,1900.00
2018-09-12T09:50:47.845Z,1788.00
2018-09-12T09:51:47.850Z,1604.00
2018-09-12T09:52:47.878Z,1508.00
2018-09-12T09:53:47.900Z,1396.00
2018-09-12T09:54:48.008Z,1280.00
2018-09-12T09:55:47.952Z,1268.00
2018-09-12T09:56:47.977Z,1292.00
2018-09-12T09:57:47.997Z,1284.00
2018-09-12T09:58:48.031Z,1324.00
2018-09-12T09:59:48.048Z,1268.00
2018-09-12T10:00:48.079Z,1204.00
2018-09-12T10:01:48.099Z,1144.00
2018-09-12T10:02:48.124Z,1152.00
2018-09-12T10:03:48.150Z,1064.00
2018-09-12T10:04:48.181Z,984.00
2018-09-12T10:05:48.215Z,968.00
2018-09-12T10:06:48.221Z,976.00
2018-09-12T10:07:48.252Z,992.00
2018-09-12T10:08:48.277Z,1080.00
2018-09-12T10:09:48.299Z,1140.00
2018-09-12T10:10:48.321Z,1168.00
2018-09-12T10:11:48.369Z,1188.00
2018-09-12T10:12:48.366Z,1224.00
2018-09-12T10:13:48.392Z,1276.00
2018-09-12T10:14:48.419Z,1368.00
2018-09-12T10:15:48.442Z,1444.00
2018-09-12T10:16:48.470Z,1480.00
2018-09-12T10:17:48.492Z,1448.00
2018-09-12T10:18:48.518Z,1460.00
2018-09-12T10:19:48.542Z,1516.00
2018-09-12T10:20:48.576Z,1556.00
2018-09-12T10:21:48.590Z,1628.00
2018-09-12T10:22:48.615Z,1800.00
2018-09-12T10:23:48.639Z,1916.00
2018-09-12T10:24:48.664Z,1840.00
2018-09-12T10:25:48.695Z,1696.00
2018-09-12T10:26:48.720Z,1560.00
2018-09-12T10:27:48.740Z,1540.00
2018-09-12T10:28:48.766Z,1592.00
2018-09-12T10:29:48.795Z,1620.00
2018-09-12T10:30:48.815Z,1608.00
2018-09-12T10:31:48.844Z,1580.00
2018-09-12T10:32:48.870Z,1576.00
2018-09-12T10:33:48.892Z,1612.00
2018-09-12T10:34:48.917Z,1640.00
2018-09-12T10:35:48.936Z,1664.00
2018-09-12T10:36:48.960Z,1596.00
2018-09-12T10:37:48.989Z,1732.00
2018-09-12T10:38:49.014Z,1848.00
2018-09-12T10:39:49.039Z,1768.00
2018-09-12T10:40:49.112Z,1704.00
2018-09-12T10:41:49.103Z,1748.00
2018-09-12T10:42:49.122Z,1852.00
2018-09-12T10:43:49.137Z,1884.00
2018-09-12T10:44:49.159Z,1796.00
2018-09-12T10:45:49.210Z,1784.00
2018-09-12T10:46:49.208Z,1884.00
2018-09-12T10:47:49.235Z,1832.00
2018-09-12T10:48:49.269Z,1808.00
2018-09-12T10:49:49.294Z,1880.00
2018-09-12T10:50:49.314Z,2060.00
2018-09-12T10:51:49.343Z,2016.00
2018-09-12T10:52:49.360Z,1976.00
2018-09-12T10:53:49.388Z,1776.00
2018-09-12T10:54:49.413Z,1788.00
2018-09-12T10:55:49.435Z,1884.00
2018-09-12T10:56:49.458Z,1864.00
2018-09-12T10:57:49.489Z,1756.00
2018-09-12T10:58:49.516Z,1640.00
2018-09-12T10:59:49.536Z,1592.00
2018-09-12T11:00:49.556Z,1540.00
2018-09-12T11:01:49.578Z,1552.00
2018-09-12T11:02:49.612Z,1580.00
2018-09-12T11:03:49.633Z,1540.00
2018-09-12T11:04:49.659Z,1496.00
2018-09-12T11:05:49.683Z,1500.00
2018-09-12T11:06:49.706Z,1552.00
2018-09-12T11:07:49.728Z,1760.00
2018-09-12T11:08:49.767Z,1892.00
2018-09-12T11:09:49.809Z,1972.00
2018-09-12T11:10:49.809Z,2056.00
2018-09-12T11:11:49.867Z,2124.00
2018-09-12T11:12:49.854Z,2052.00
2018-09-12T11:13:49.884Z,1996.00
2018-09-12T11:14:49.928Z,1988.00
2018-09-12T11:15:49.953Z,1992.00
2018-09-12T11:16:49.957Z,1996.00
2018-09-12T11:17:50.012Z,1868.00
2018-09-12T11:18:50.022Z,1672.00
2018-09-12T11:19:51.030Z,1628.00
2018-09-12T11:20:50.068Z,1728.00
2018-09-12T11:21:50.092Z,1688.00
2018-09-12T11:22:50.109Z,1684.00
2018-09-12T11:23:50.186Z,1720.00
2018-09-12T11:24:50.688Z,1832.00
2018-09-12T11:25:51.193Z,1988.00
2018-09-12T11:26:50.207Z,2300.00
2018-09-12T11:27:50.229Z,2420.00
2018-09-12T11:28:50.266Z,2600.00
2018-09-12T11:29:50.278Z,2776.00
2018-09-12T11:30:50.317Z,2856.00
2018-09-12T11:31:50.333Z,2848.00
2018-09-12T11:32:50.356Z,2768.00
2018-09-12T11:33:50.381Z,2480.00
2018-09-12T11:34:50.406Z,2100.00
2018-09-12T11:35:50.429Z,1896.00
2018-09-12T11:36:50.464Z,1768.00
2018-09-12T11:37:50.484Z,1772.00
2018-09-12T11:38:50.507Z,1864.00
2018-09-12T11:39:50.534Z,1952.00
2018-09-12T11:40:50.555Z,1976.00
2018-09-12T11:41:50.581Z,1984.00
2018-09-12T11:42:50.612Z,1992.00
2018-09-12T11:43:50.634Z,1996.00
2018-09-12T11:44:50.655Z,1968.00
2018-09-12T11:45:50.676Z,1844.00
2018-09-12T11:46:50.706Z,1804.00
2018-09-12T11:47:50.729Z,1744.00
2018-09-12T11:48:50.754Z,1724.00
2018-09-12T11:49:50.779Z,1600.00
2018-09-12T11:50:50.805Z,1532.00
2018-09-12T11:51:50.833Z,1548.00
2018-09-12T11:52:50.858Z,1664.00
2018-09-12T11:53:50.881Z,1828.00
2018-09-12T11:54:50.906Z,2056.00
2018-09-12T11:55:50.930Z,2020.00
2018-09-12T11:56:50.953Z,1960.00
2018-09-12T11:57:50.980Z,2076.00
2018-09-12T11:58:51.005Z,2308.00
2018-09-12T11:59:51.030Z,2424.00
2018-09-12T12:00:51.053Z,2384.00
2018-09-12T12:01:51.082Z,2432.00
2018-09-12T12:02:51.105Z,2488.00
2018-09-12T12:03:51.129Z,2560.00
2018-09-12T12:04:51.161Z,2412.00
2018-09-12T12:05:51.176Z,2360.00
2018-09-12T12:06:51.203Z,2120.00
2018-09-12T12:07:51.228Z,1952.00
2018-09-12T12:08:51.256Z,1908.00
2018-09-12T12:09:51.280Z,1872.00
2018-09-12T12:10:51.307Z,2068.00
2018-09-12T12:11:51.329Z,2008.00
2018-09-12T12:12:51.354Z,1880.00
2018-09-12T12:13:51.378Z,2040.00
2018-09-12T12:14:51.404Z,2180.00
2018-09-12T12:15:51.425Z,2340.00
2018-09-12T12:16:51.455Z,2504.00
2018-09-12T12:17:51.483Z,2228.00
2018-09-12T12:18:51.509Z,1940.00
2018-09-12T12:19:51.543Z,1592.00
2018-09-12T12:20:51.555Z,1408.00
2018-09-12T12:21:51.577Z,1324.00
2018-09-12T12:22:51.618Z,1272.00
2018-09-12T12:23:51.625Z,1264.00
2018-09-12T12:24:51.651Z,1352.00
2018-09-12T12:25:51.682Z,1468.00
2018-09-12T12:26:51.703Z,1580.00
2018-09-12T12:27:51.732Z,1696.00
2018-09-12T12:28:51.756Z,1804.00
2018-09-12T12:29:51.823Z,1860.00
2018-09-12T12:30:51.797Z,1892.00
2018-09-12T12:31:51.833Z,1916.00
2018-09-12T12:32:51.855Z,1912.00
2018-09-12T12:33:51.884Z,1956.00
2018-09-12T12:34:51.908Z,2068.00
2018-09-12T12:35:51.931Z,2260.00
2018-09-12T12:36:51.954Z,2380.00
2018-09-12T12:37:51.978Z,2444.00
2018-09-12T12:38:52.010Z,2516.00
2018-09-12T12:39:52.045Z,2548.00
2018-09-12T12:40:52.052Z,2692.00
2018-09-12T12:41:52.076Z,2760.00
2018-09-12T12:42:52.099Z,2824.00
2018-09-12T12:43:52.128Z,2828.00
2018-09-12T12:44:52.156Z,2756.00
2018-09-12T12:45:52.180Z,2736.00
2018-09-12T12:46:52.227Z,2764.00
2018-09-12T12:47:52.233Z,2724.00